Time;durP1;ratioP1;P1;durP2;ratioP2;P2;SDS_P1;SDS_P2;PMS_P1;PMS_P2;Temp;Humidity;BMP_temperature;BMP_pressure;BME280_temperature;BME280_humidity;BME280_pressure;Samples;Min_cycle;Max_cycle;Signal;HPM_P1;HPM_P2
2022/08/05 00:01:20;;;;;;;11.40;3.80;;;17.90;99.90;;;;;;4941055;29;20138;-72
2022/08/05 00:03:48;;;;;;;9.25;3.30;;;18.00;99.90;;;;;;4940504;29;20091;-73
2022/08/05 00:06:14;;;;;;;11.32;3.78;;;18.00;99.90;;;;;;4924472;29;20082;-72
2022/08/05 00:08:41;;;;;;;10.43;3.42;;;18.00;99.90;;;;;;4957450;28;20062;-72
2022/08/05 00:11:10;;;;;;;7.80;3.37;;;18.00;99.90;;;;;;4956400;28;20507;-73
2022/08/05 00:13:37;;;;;;;12.70;3.35;;;18.00;99.90;;;;;;4956201;29;20445;-72
2022/08/05 00:16:06;;;;;;;8.93;3.65;;;18.00;99.90;;;;;;4940835;29;20047;-72
2022/08/05 00:18:31;;;;;;;9.82;3.22;;;18.10;99.90;;;;;;4940497;29;20051;-73
2022/08/05 00:20:57;;;;;;;9.77;3.20;;;18.10;99.90;;;;;;4908858;29;20047;-72
2022/08/05 00:23:23;;;;;;;10.50;3.67;;;18.10;99.90;;;;;;4940381;29;20051;-72
2022/08/05 00:25:49;;;;;;;9.80;3.75;;;18.20;99.90;;;;;;4956346;29;20101;-72
2022/08/05 00:28:15;;;;;;;8.90;3.35;;;18.10;99.90;;;;;;4955616;28;20066;-72
2022/08/05 00:30:41;;;;;;;12.37;3.80;;;18.10;99.90;;;;;;4957252;29;20051;-73
2022/08/05 00:33:08;;;;;;;8.20;3.30;;;18.20;99.90;;;;;;4924087;29;20074;-72
2022/08/05 00:35:34;;;;;;;12.43;4.07;;;18.20;99.90;;;;;;4955269;29;20287;-72
2022/08/05 00:38:00;;;;;;;10.38;2.97;;;18.20;99.90;;;;;;4938540;29;20079;-72
2022/08/05 00:40:26;;;;;;;12.87;3.27;;;18.20;99.90;;;;;;4940338;29;20084;-72
2022/08/05 00:42:57;;;;;;;11.00;3.15;;;18.30;99.90;;;;;;4955682;29;20133;-73
2022/08/05 00:45:24;;;;;;;8.15;3.40;;;18.30;99.90;;;;;;4955517;29;20078;-74
2022/08/05 00:47:54;;;;;;;9.05;3.20;;;18.30;99.90;;;;;;4940539;29;20399;-73
2022/08/05 00:50:20;;;;;;;14.85;3.45;;;18.40;99.90;;;;;;4908328;29;20102;-77
2022/08/05 00:52:49;;;;;;;7.82;3.22;;;18.30;99.90;;;;;;4957215;29;20205;-73
2022/08/05 00:55:15;;;;;;;7.90;3.30;;;18.30;99.90;;;;;;4939366;29;20142;-73
2022/08/05 00:57:41;;;;;;;9.97;3.03;;;18.30;99.90;;;;;;4939409;29;20051;-73
2022/08/05 01:00:08;;;;;;;10.10;3.17;;;18.40;99.90;;;;;;4939689;29;20129;-72
2022/08/05 01:02:34;;;;;;;8.80;3.00;;;18.30;99.90;;;;;;4957381;28;20130;-74
2022/08/05 01:05:03;;;;;;;11.38;3.55;;;18.40;99.90;;;;;;4955977;29;20388;-72
2022/08/05 01:07:29;;;;;;;7.63;3.17;;;18.30;99.90;;;;;;4940333;29;20050;-73
2022/08/05 01:09:55;;;;;;;9.53;3.07;;;18.40;99.90;;;;;;4939990;29;20683;-74
2022/08/05 01:12:23;;;;;;;12.10;2.92;;;18.30;99.90;;;;;;4940234;29;20067;-76
2022/08/05 01:15:09;;;;;;;11.82;3.17;;;18.30;99.90;;;;;;4923949;29;20074;-72
2022/08/05 01:17:42;;;;;;;11.73;3.20;;;18.30;99.90;;;;;;4908346;29;20066;-72
2022/08/05 01:20:15;;;;;;;10.27;2.90;;;18.30;99.90;;;;;;4985004;23;20138;-71
2022/08/05 01:23:14;;;;;;;10.35;3.17;;;18.30;99.90;;;;;;4943346;29;20392;-72
2022/08/05 01:26:11;;;;;;;8.25;2.78;;;18.20;99.90;;;;;;4953015;28;20078;-71
2022/08/05 01:28:55;;;;;;;7.63;2.85;;;18.30;99.90;;;;;;4953853;28;20039;-70
2022/08/05 01:31:28;;;;;;;11.55;3.30;;;18.30;99.90;;;;;;4953243;29;20058;-70
2022/08/05 01:34:15;;;;;;;9.73;2.83;;;18.30;99.90;;;;;;4953445;29;20051;-71
2022/08/05 01:37:00;;;;;;;8.63;2.72;;;18.20;99.90;;;;;;4935742;29;20047;-71
2022/08/05 01:39:28;;;;;;;11.43;3.42;;;18.30;99.90;;;;;;4950560;29;20068;-76
2022/08/05 01:41:56;;;;;;;12.40;3.28;;;18.20;99.90;;;;;;4934188;29;20126;-72
2022/08/05 01:44:23;;;;;;;13.45;3.35;;;18.20;99.90;;;;;;4935576;29;20055;-74
2022/08/05 01:46:49;;;;;;;;;;;18.20;99.90;;;;;;4918729;29;20084;-73
2022/08/05 01:49:21;;;;;;;9.52;3.08;;;18.30;99.90;;;;;;4952282;28;20429;-76
2022/08/05 01:51:49;;;;;;;11.07;3.00;;;18.20;99.90;;;;;;4953126;28;20054;-71
2022/08/05 01:54:20;;;;;;;8.50;3.20;;;18.20;99.90;;;;;;4953373;29;20134;-75
2022/08/05 01:56:50;;;;;;;8.88;2.83;;;18.20;99.90;;;;;;4952289;28;20558;-72
2022/08/05 01:59:20;;;;;;;9.98;3.30;;;18.20;99.90;;;;;;4952293;29;20102;-70
2022/08/05 02:01:48;;;;;;;10.70;2.97;;;18.20;99.90;;;;;;4950063;29;20051;-72
2022/08/05 02:04:19;;;;;;;9.55;3.05;;;18.20;99.90;;;;;;4921278;29;20141;-73
2022/08/05 02:06:45;;;;;;;13.60;2.97;;;18.20;99.90;;;;;;4937639;29;20048;-73
2022/08/05 02:09:11;;;;;;;7.57;2.90;;;18.20;99.90;;;;;;4934582;29;20373;-72
2022/08/05 02:11:47;;;;;;;9.60;3.30;;;18.20;99.90;;;;;;4953609;29;20055;-72
2022/08/05 02:14:27;;;;;;;7.72;3.03;;;18.30;99.90;;;;;;4953509;29;20137;-71
2022/08/05 02:16:59;;;;;;;10.35;3.35;;;18.30;99.90;;;;;;4951524;29;20472;-72
2022/08/05 02:19:31;;;;;;;10.40;3.40;;;18.30;99.90;;;;;;4921761;29;20098;-72
2022/08/05 02:22:00;;;;;;;10.60;3.92;;;18.30;99.90;;;;;;4937514;29;20480;-73
2022/08/05 02:24:40;;;;;;;14.15;3.85;;;18.20;99.90;;;;;;4951534;29;20062;-71
2022/08/05 02:27:09;;;;;;;9.18;3.35;;;18.10;99.90;;;;;;4958249;29;20123;-71
2022/08/05 02:29:37;;;;;;;13.13;3.67;;;18.10;99.90;;;;;;4939351;29;20051;-72
2022/08/05 02:32:07;;;;;;;10.95;3.63;;;18.10;99.90;;;;;;4941052;29;20059;-74
2022/08/05 02:34:36;;;;;;;10.70;4.15;;;18.10;99.90;;;;;;4957592;29;20126;-78
2022/08/05 02:37:06;;;;;;;10.50;3.80;;;18.00;99.90;;;;;;4956024;28;20114;-71
2022/08/05 02:39:37;;;;;;;12.32;3.97;;;18.00;99.90;;;;;;4956479;29;20043;-77
2022/08/05 02:42:04;;;;;;;13.63;4.00;;;18.00;99.90;;;;;;4950161;29;20052;-71
2022/08/05 02:44:32;;;;;;;9.35;3.83;;;18.00;99.90;;;;;;4937120;29;20123;-71
2022/08/05 02:47:00;;;;;;;9.27;3.78;;;17.90;99.90;;;;;;4940096;29;20073;-72
2022/08/05 02:49:31;;;;;;;8.85;4.40;;;17.90;99.90;;;;;;4941964;29;20055;-72
2022/08/05 02:51:57;;;;;;;9.80;4.03;;;17.90;99.90;;;;;;4954501;29;20062;-72
2022/08/05 02:54:27;;;;;;;10.65;4.32;;;17.90;99.90;;;;;;4922244;29;20043;-72
2022/08/05 02:56:55;;;;;;;8.57;4.05;;;17.80;99.90;;;;;;4952110;28;20043;-68
2022/08/05 02:59:26;;;;;;;11.48;4.10;;;17.80;99.90;;;;;;4952753;28;20055;-71
2022/08/05 03:01:59;;;;;;;12.57;4.45;;;17.80;99.90;;;;;;4956418;29;20055;-72
2022/08/05 03:04:26;;;;;;;8.68;3.72;;;17.80;99.90;;;;;;4939927;29;20050;-71
2022/08/05 03:06:52;;;;;;;10.18;3.80;;;17.80;99.90;;;;;;4954325;29;20059;-71
2022/08/05 03:09:18;;;;;;;9.90;3.88;;;17.80;99.90;;;;;;4955876;29;20483;-74
2022/08/05 03:11:44;;;;;;;13.05;4.28;;;17.80;99.90;;;;;;4937920;29;20086;-72
2022/08/05 03:14:10;;;;;;;11.03;3.40;;;17.70;99.90;;;;;;4954967;29;20518;-71
2022/08/05 03:16:36;;;;;;;8.18;3.50;;;17.70;99.90;;;;;;4939238;29;20149;-79
2022/08/05 03:19:03;;;;;;;11.47;3.90;;;17.70;99.90;;;;;;4953111;28;20145;-73
2022/08/05 03:21:30;;;;;;;9.45;3.53;;;17.70;99.90;;;;;;4955320;29;20055;-71
2022/08/05 03:23:57;;;;;;;9.00;3.60;;;17.80;99.90;;;;;;4939247;29;20154;-72
2022/08/05 03:26:23;;;;;;;10.98;3.35;;;17.70;99.90;;;;;;4954146;28;20497;-73
2022/08/05 03:28:49;;;;;;;14.87;3.70;;;17.80;99.90;;;;;;4953991;28;20071;-73
2022/08/05 03:31:16;;;;;;;11.67;3.93;;;17.80;99.90;;;;;;4950866;29;20437;-73
2022/08/05 03:33:42;;;;;;;10.43;3.80;;;17.80;99.90;;;;;;4920339;29;20135;-72
2022/08/05 03:36:09;;;;;;;11.13;3.77;;;17.70;99.90;;;;;;4936445;29;20181;-73
2022/08/05 03:38:44;;;;;;;8.05;4.28;;;17.80;99.90;;;;;;4950769;29;20066;-75
2022/08/05 03:41:15;;;;;;;12.57;4.00;;;17.80;99.90;;;;;;4938039;29;20055;-71
2022/08/05 03:43:40;;;;;;;11.02;3.83;;;17.80;99.90;;;;;;4939062;29;20055;-77
2022/08/05 03:46:06;;;;;;;10.73;4.03;;;17.80;99.90;;;;;;4955008;28;20047;-70
2022/08/05 03:48:32;;;;;;;7.00;3.43;;;17.70;99.90;;;;;;4934611;29;20075;-71
2022/08/05 03:51:23;;;;;;;10.47;4.00;;;17.70;99.90;;;;;;4922311;29;20360;-71
2022/08/05 03:53:51;;;;;;;11.50;3.70;;;17.70;99.90;;;;;;4954388;29;20051;-72
2022/08/05 03:56:29;;;;;;;7.07;3.85;;;17.70;99.90;;;;;;4938585;29;20503;-72
2022/08/05 03:58:59;;;;;;;8.82;3.80;;;17.70;99.90;;;;;;4952491;29;20066;-72
2022/08/05 04:01:27;;;;;;;10.88;3.90;;;17.70;99.90;;;;;;4955293;29;20062;-73
2022/08/05 04:03:54;;;;;;;8.23;3.65;;;17.60;99.90;;;;;;4919888;29;20197;-72
2022/08/05 04:06:20;;;;;;;;;;;17.60;99.90;;;;;;4936662;29;20055;-72
2022/08/05 04:08:52;;;;;;;10.70;4.15;;;17.70;99.90;;;;;;4936058;29;20466;-71
2022/08/05 04:11:20;;;;;;;11.90;4.35;;;17.60;99.90;;;;;;4953299;28;20070;-72
2022/08/05 04:13:47;;;;;;;13.07;4.20;;;17.60;99.90;;;;;;4955514;28;20043;-72
2022/08/05 04:16:14;;;;;;;;;;;17.60;99.90;;;;;;4939081;29;20061;-72
2022/08/05 04:18:45;;;;;;;12.90;3.88;;;17.60;99.90;;;;;;4933236;29;20259;-77
2022/08/05 04:21:11;;;;;;;8.77;4.13;;;17.60;99.90;;;;;;4919666;29;20051;-71
2022/08/05 04:23:38;;;;;;;9.10;4.17;;;17.60;99.90;;;;;;4947255;29;20040;-71
2022/08/05 04:26:04;;;;;;;;;;;17.60;99.90;;;;;;4955199;28;20149;-72
2022/08/05 04:28:37;;;;;;;12.20;4.57;;;17.60;99.90;;;;;;4956108;28;20076;-71
2022/08/05 04:31:03;;;;;;;10.85;3.88;;;17.70;99.90;;;;;;4939147;29;20039;-72
2022/08/05 04:33:29;;;;;;;12.77;4.10;;;17.60;99.90;;;;;;4939360;29;20055;-72
2022/08/05 04:35:55;;;;;;;9.25;4.80;;;17.60;99.90;;;;;;4938444;29;20061;-73
2022/08/05 04:38:21;;;;;;;9.37;4.80;;;17.60;99.90;;;;;;4955895;28;20122;-73
2022/08/05 04:40:46;;;;;;;10.30;5.17;;;17.60;99.90;;;;;;4955462;28;20098;-78
2022/08/05 04:43:12;;;;;;;9.73;4.73;;;17.50;99.90;;;;;;4939167;28;20408;-72
2022/08/05 04:45:38;;;;;;;11.47;5.63;;;17.50;99.90;;;;;;4920201;29;20044;-72
2022/08/05 04:48:28;;;;;;;10.37;5.00;;;17.40;99.90;;;;;;4906973;29;20066;-73
2022/08/05 04:50:55;;;;;;;14.45;5.50;;;17.50;99.90;;;;;;4952208;28;20440;-72
2022/08/05 04:53:28;;;;;;;11.40;5.10;;;17.40;99.90;;;;;;4940131;29;20091;-72
2022/08/05 04:55:56;;;;;;;11.55;5.80;;;17.40;99.90;;;;;;4951984;29;20054;-72
2022/08/05 04:58:25;;;;;;;15.02;5.15;;;17.40;99.90;;;;;;4957565;29;20055;-73
2022/08/05 05:00:53;;;;;;;11.10;4.50;;;17.40;99.90;;;;;;4945035;29;20043;-77
2022/08/05 05:03:19;;;;;;;14.57;5.28;;;17.40;99.90;;;;;;4939571;29;20058;-72
2022/08/05 05:05:45;;;;;;;13.27;5.07;;;17.50;99.90;;;;;;4953849;28;20047;-72
2022/08/05 05:08:16;;;;;;;11.93;5.43;;;17.50;99.90;;;;;;4934473;29;20480;-72
2022/08/05 05:10:44;;;;;;;9.07;5.30;;;17.50;99.90;;;;;;4928093;29;20051;-72
2022/08/05 05:13:13;;;;;;;12.25;5.63;;;17.50;99.90;;;;;;4953158;29;20535;-71
2022/08/05 05:15:40;;;;;;;14.65;4.88;;;17.60;99.90;;;;;;4937050;29;20106;-71
2022/08/05 05:18:14;;;;;;;9.95;4.90;;;17.50;99.90;;;;;;4952269;29;20047;-72
2022/08/05 05:20:46;;;;;;;13.43;4.88;;;17.50;99.90;;;;;;4936762;29;20047;-71
2022/08/05 05:23:12;;;;;;;12.57;4.60;;;17.60;99.90;;;;;;4920646;29;20051;-71
2022/08/05 05:25:43;;;;;;;9.05;4.82;;;17.60;99.90;;;;;;4952425;28;20098;-71
2022/08/05 05:28:10;;;;;;;13.85;4.28;;;17.50;99.90;;;;;;4932220;29;20513;-72
2022/08/05 05:30:37;;;;;;;12.77;4.68;;;17.60;99.90;;;;;;4918127;29;20075;-72
2022/08/05 05:33:05;;;;;;;9.07;4.22;;;17.60;99.90;;;;;;4937127;29;20425;-73
2022/08/05 05:35:36;;;;;;;11.05;4.63;;;17.60;99.90;;;;;;4953675;29;20058;-70
2022/08/05 05:38:03;;;;;;;13.40;5.40;;;17.60;99.90;;;;;;4952550;28;20043;-71
2022/08/05 05:40:30;;;;;;;10.15;4.40;;;17.60;99.90;;;;;;4936528;29;20054;-71
2022/08/05 05:42:56;;;;;;;11.38;4.85;;;17.50;99.90;;;;;;4935140;29;20094;-77
2022/08/05 05:45:22;;;;;;;13.30;5.40;;;17.50;99.90;;;;;;4953517;29;20055;-72
2022/08/05 05:47:48;;;;;;;13.23;5.80;;;17.30;99.90;;;;;;4952998;28;20093;-71
2022/08/05 05:50:18;;;;;;;11.47;5.33;;;17.30;99.90;;;;;;4935251;29;20079;-71
2022/08/05 05:52:46;;;;;;;11.75;5.03;;;17.30;99.90;;;;;;4917246;29;20056;-73
2022/08/05 05:55:17;;;;;;;12.18;4.80;;;17.20;99.90;;;;;;4917853;29;20134;-72
2022/08/05 05:57:46;;;;;;;13.57;5.60;;;17.30;99.90;;;;;;4918134;29;20124;-71
2022/08/05 06:00:17;;;;;;;10.93;5.10;;;17.20;99.90;;;;;;4917945;29;20132;-73
2022/08/05 06:02:45;;;;;;;10.32;5.65;;;17.20;99.90;;;;;;4933855;29;20048;-73
2022/08/05 06:05:12;;;;;;;12.70;4.70;;;17.20;99.90;;;;;;4917202;29;20048;-72
2022/08/05 06:07:39;;;;;;;10.75;5.00;;;17.30;99.90;;;;;;4902437;29;20136;-73
2022/08/05 06:10:06;;;;;;;12.95;5.18;;;17.40;99.90;;;;;;4932490;29;20054;-72
2022/08/05 06:12:33;;;;;;;10.23;4.90;;;17.50;99.90;;;;;;4917801;29;20480;-72
2022/08/05 06:15:00;;;;;;;10.65;4.80;;;17.60;99.90;;;;;;4917448;29;20044;-73
2022/08/05 06:17:25;;;;;;;10.05;4.90;;;17.70;99.90;;;;;;4917680;29;20044;-73
2022/08/05 06:19:51;;;;;;;10.97;4.80;;;17.80;99.90;;;;;;4917439;29;20139;-72
2022/08/05 06:22:25;;;;;;;13.77;4.40;;;17.80;99.90;;;;;;4932969;29;20220;-72
2022/08/05 06:24:51;;;;;;;11.45;4.32;;;17.80;99.90;;;;;;4932674;29;20092;-71
2022/08/05 06:27:17;;;;;;;11.30;4.75;;;17.80;99.90;;;;;;4917134;29;20048;-71
2022/08/05 06:29:43;;;;;;;9.63;4.60;;;17.70;99.90;;;;;;4901220;29;20156;-71
2022/08/05 06:32:10;;;;;;;7.53;3.90;;;17.70;99.90;;;;;;4932962;29;20301;-72
2022/08/05 06:34:36;;;;;;;9.82;4.18;;;17.70;99.90;;;;;;4948663;28;20060;-74
2022/08/05 06:37:02;;;;;;;12.57;4.83;;;17.70;99.90;;;;;;4932662;29;20134;-72
2022/08/05 06:39:28;;;;;;;14.57;4.70;;;17.70;99.90;;;;;;4932088;29;20516;-73
2022/08/05 06:42:00;;;;;;;12.20;4.77;;;17.70;99.90;;;;;;4933917;29;20055;-72
2022/08/05 06:44:28;;;;;;;12.32;4.40;;;17.70;99.90;;;;;;4902008;29;20080;-73
2022/08/05 06:46:55;;;;;;;7.30;4.40;;;17.80;99.90;;;;;;4918331;29;20059;-72
2022/08/05 06:49:21;;;;;;;10.63;5.00;;;17.90;99.90;;;;;;4934477;29;20079;-72
2022/08/05 06:51:47;;;;;;;8.73;4.77;;;17.80;99.90;;;;;;4917909;29;20043;-73
2022/08/05 06:54:20;;;;;;;11.20;4.40;;;17.90;99.90;;;;;;4906485;29;20050;-76
2022/08/05 06:56:46;;;;;;;9.57;4.47;;;18.00;99.90;;;;;;4954297;29;20047;-71
2022/08/05 06:59:13;;;;;;;8.00;4.20;;;18.10;99.90;;;;;;4952173;29;20054;-72
2022/08/05 07:01:39;;;;;;;12.82;4.85;;;18.30;99.90;;;;;;4953376;29;20047;-71
2022/08/05 07:04:05;;;;;;;7.78;3.70;;;18.40;99.90;;;;;;4953697;29;20423;-71
2022/08/05 07:06:30;;;;;;;9.53;4.10;;;18.30;99.90;;;;;;4953313;29;20145;-72
2022/08/05 07:08:58;;;;;;;5.47;3.03;;;18.40;99.90;;;;;;4954950;29;20044;-73
2022/08/05 07:11:23;;;;;;;6.03;3.50;;;18.60;99.90;;;;;;4937188;29;20043;-72
2022/08/05 07:16:49;;;;;;;7.20;3.38;;;18.70;99.90;;;;;;4953726;29;20047;-72
2022/08/05 07:19:17;;;;;;;6.43;3.03;;;18.80;99.90;;;;;;4956213;29;20055;-71
2022/08/05 07:21:49;;;;;;;12.95;3.15;;;18.90;99.90;;;;;;4956721;28;20132;-72
2022/08/05 07:24:17;;;;;;;8.40;3.10;;;18.90;99.90;;;;;;4958515;28;20461;-73
2022/08/05 07:26:45;;;;;;;6.57;2.85;;;19.10;99.90;;;;;;4939068;29;20114;-71
2022/08/05 07:29:11;;;;;;;6.10;2.78;;;19.20;99.90;;;;;;4957456;29;20047;-73
2022/08/05 07:31:37;;;;;;;7.65;2.88;;;19.20;99.90;;;;;;4936748;29;20912;-73
2022/08/05 07:34:04;;;;;;;5.23;3.20;;;19.10;99.90;;;;;;4937837;29;20091;-72
2022/08/05 07:36:32;;;;;;;8.45;3.00;;;19.20;99.90;;;;;;4938141;29;20090;-73
2022/08/05 07:38:58;;;;;;;5.03;2.17;;;19.20;99.90;;;;;;4935869;29;20135;-72
2022/08/05 07:41:24;;;;;;;8.10;3.00;;;19.30;99.90;;;;;;4906506;29;20203;-71
2022/08/05 07:43:52;;;;;;;8.23;2.20;;;19.30;99.90;;;;;;4933798;29;20132;-71
2022/08/05 07:46:19;;;;;;;8.80;2.55;;;19.30;99.90;;;;;;4916677;29;20231;-71
2022/08/05 07:48:45;;;;;;;6.88;2.05;;;19.60;99.90;;;;;;4920647;29;20134;-73
2022/08/05 07:51:11;;;;;;;6.93;2.20;;;19.80;99.90;;;;;;4904184;29;20052;-73
2022/08/05 07:53:36;;;;;;;7.20;2.00;;;19.90;99.90;;;;;;4937589;29;20048;-73
2022/08/05 07:56:03;;;;;;;5.87;1.90;;;20.30;99.90;;;;;;4925745;29;20051;-73
2022/08/05 07:58:30;;;;;;;6.80;2.13;;;20.40;99.90;;;;;;4926533;29;20332;-73
2022/08/05 08:00:56;;;;;;;;;;;20.80;99.90;;;;;;4922224;29;20106;-72
2022/08/05 08:03:22;;;;;;;3.63;1.00;;;21.10;99.90;;;;;;4937640;29;20449;-73
2022/08/05 08:05:51;;;;;;;3.20;0.80;;;21.10;99.90;;;;;;4938613;29;20055;-71
2022/08/05 08:08:17;;;;;;;4.75;0.90;;;20.80;99.90;;;;;;4905987;29;20119;-71
2022/08/05 08:10:43;;;;;;;4.57;1.20;;;20.80;99.90;;;;;;4921828;29;20051;-73
2022/08/05 08:13:09;;;;;;;5.93;1.03;;;20.90;99.90;;;;;;4937613;29;20139;-74
2022/08/05 08:15:35;;;;;;;4.50;1.03;;;20.70;99.90;;;;;;4921324;29;20064;-73
2022/08/05 08:18:01;;;;;;;4.70;1.53;;;20.90;99.90;;;;;;4937964;29;20319;-73
2022/08/05 08:20:28;;;;;;;4.13;0.90;;;20.60;99.90;;;;;;4903603;29;20140;-71
2022/08/05 08:22:58;;;;;;;4.35;0.80;;;20.90;99.90;;;;;;4936496;29;20067;-70
2022/08/05 08:25:25;;;;;;;3.72;0.90;;;20.70;99.90;;;;;;4935182;29;20127;-71
2022/08/05 08:27:51;;;;;;;5.00;0.93;;;21.00;99.90;;;;;;4936501;29;20052;-73
2022/08/05 08:30:22;;;;;;;5.07;0.90;;;21.00;99.90;;;;;;4919936;29;20444;-72
2022/08/05 08:32:48;;;;;;;5.50;0.87;;;21.10;99.90;;;;;;4903843;29;20055;-73
2022/08/05 08:35:14;;;;;;;3.53;0.90;;;21.30;99.90;;;;;;4903017;29;20051;-79
2022/08/05 08:37:39;;;;;;;5.83;0.67;;;20.90;99.90;;;;;;4935100;29;20063;-70
2022/08/05 08:40:06;;;;;;;4.10;0.63;;;21.20;99.90;;;;;;4950463;29;20123;-71
2022/08/05 08:42:32;;;;;;;4.68;0.77;;;21.30;99.90;;;;;;4941376;29;20418;-71
2022/08/05 08:44:59;;;;;;;5.00;0.70;;;21.00;99.90;;;;;;4936350;29;20051;-73
2022/08/05 08:47:26;;;;;;;4.22;0.98;;;21.20;99.90;;;;;;4919520;29;20404;-73
2022/08/05 08:49:55;;;;;;;3.83;0.90;;;21.10;99.90;;;;;;4919164;29;20382;-73
2022/08/05 08:52:28;;;;;;;2.55;0.75;;;21.40;99.90;;;;;;4934371;29;20265;-74
2022/08/05 08:54:54;;;;;;;2.08;0.82;;;21.40;99.90;;;;;;4934042;29;20055;-76
2022/08/05 08:57:21;;;;;;;2.65;0.73;;;21.30;99.90;;;;;;4935457;29;20048;-73
2022/08/05 08:59:48;;;;;;;3.92;0.90;;;21.20;99.90;;;;;;4934409;29;20106;-73
2022/08/05 09:02:16;;;;;;;17.17;4.57;;;21.30;99.90;;;;;;4935159;29;20382;-72
2022/08/05 09:04:44;;;;;;;3.70;1.00;;;21.50;99.90;;;;;;4919553;29;20194;-71
2022/08/05 09:07:09;;;;;;;;;;;21.50;99.90;;;;;;4936083;29;20448;-73
2022/08/05 09:09:36;;;;;;;3.33;0.70;;;21.60;99.90;;;;;;4905282;29;19923;-72
2022/08/05 09:12:04;;;;;;;3.28;0.63;;;21.80;99.90;;;;;;4935286;29;20139;-74
2022/08/05 09:14:31;;;;;;;3.63;0.60;;;21.70;99.90;;;;;;4917906;29;20051;-72
2022/08/05 09:16:59;;;;;;;4.20;0.82;;;21.80;99.90;;;;;;4934165;29;20068;-73
2022/08/05 09:19:24;;;;;;;4.13;0.80;;;21.70;99.90;;;;;;4918296;29;20424;-72
2022/08/05 09:21:50;;;;;;;3.23;0.50;;;21.80;99.90;;;;;;4935016;29;20134;-73
2022/08/05 09:24:16;;;;;;;2.80;0.53;;;21.80;99.90;;;;;;4935744;29;20092;-73
2022/08/05 09:26:49;;;;;;;3.10;0.53;;;22.00;99.90;;;;;;4918157;29;20051;-74
2022/08/05 09:29:14;;;;;;;2.83;0.50;;;21.90;99.90;;;;;;4934250;29;20044;-74
2022/08/05 09:31:42;;;;;;;4.03;0.50;;;22.20;99.90;;;;;;4939994;29;20047;-74
2022/08/05 09:34:10;;;;;;;2.08;0.40;;;22.20;99.90;;;;;;4936074;29;20051;-73
2022/08/05 09:36:50;;;;;;;2.60;0.50;;;22.30;99.70;;;;;;4936036;29;20460;-72
2022/08/05 09:39:18;;;;;;;2.20;0.60;;;22.10;98.20;;;;;;4935098;29;20102;-74
2022/08/05 09:42:05;;;;;;;2.45;0.45;;;22.10;99.50;;;;;;4902564;29;20047;-77
2022/08/05 09:44:35;;;;;;;4.22;0.50;;;22.10;97.90;;;;;;4933438;29;20146;-72
2022/08/05 09:47:12;;;;;;;3.55;0.50;;;22.10;97.70;;;;;;4918433;29;20062;-71
2022/08/05 09:49:45;;;;;;;;;;;22.00;97.90;;;;;;4935004;29;20107;-72
2022/08/05 09:52:18;;;;;;;3.45;0.32;;;22.00;97.70;;;;;;4933898;29;19974;-72
2022/08/05 09:55:06;;;;;;;3.00;0.52;;;21.90;94.90;;;;;;4934291;29;20058;-73
2022/08/05 09:57:41;;;;;;;2.03;0.40;;;22.10;93.80;;;;;;4935036;29;20044;-71
2022/08/05 10:00:12;;;;;;;6.75;0.60;;;22.00;93.40;;;;;;4934631;29;20059;-73
2022/08/05 10:02:41;;;;;;;4.07;0.40;;;21.80;93.50;;;;;;4935100;29;20043;-72
2022/08/05 10:05:36;;;;;;;2.70;0.40;;;21.90;94.60;;;;;;4934761;29;20058;-72
2022/08/05 10:08:05;;;;;;;2.53;0.30;;;21.80;95.10;;;;;;4931362;29;20130;-73
2022/08/05 10:10:45;;;;;;;3.40;0.30;;;21.60;92.50;;;;;;4933764;29;20058;-71
2022/08/05 10:13:30;;;;;;;4.47;0.50;;;21.70;93.90;;;;;;4934046;29;20531;-71
2022/08/05 10:15:59;;;;;;;2.60;0.30;;;21.60;92.50;;;;;;4934822;29;20507;-71
2022/08/05 10:18:26;;;;;;;4.85;0.43;;;21.90;93.40;;;;;;4934909;29;20062;-73
2022/08/05 10:20:56;;;;;;;1.52;0.30;;;21.70;93.30;;;;;;4934260;29;20182;-72
2022/08/05 10:23:34;;;;;;;1.63;0.40;;;21.70;93.40;;;;;;4934708;29;20047;-76
2022/08/05 10:26:06;;;;;;;2.95;0.30;;;21.90;93.20;;;;;;4934715;29;20400;-75
2022/08/05 10:28:33;;;;;;;4.53;0.30;;;21.80;92.50;;;;;;4933816;29;20047;-72
2022/08/05 10:30:59;;;;;;;1.67;0.30;;;21.90;92.60;;;;;;4918653;29;20052;-72
2022/08/05 10:33:32;;;;;;;3.70;0.40;;;21.80;90.90;;;;;;4933722;29;20058;-82
2022/08/05 10:35:59;;;;;;;3.67;0.40;;;21.90;90.80;;;;;;4933827;29;20162;-71
2022/08/05 10:38:28;;;;;;;3.03;0.32;;;21.80;90.90;;;;;;4918057;29;20499;-78
2022/08/05 10:41:24;;;;;;;1.38;0.30;;;22.00;91.60;;;;;;4933245;29;20459;-73
2022/08/05 10:44:00;;;;;;;1.48;0.20;;;22.00;91.20;;;;;;4934228;29;20079;-74
2022/08/05 10:46:44;;;;;;;4.40;0.40;;;22.10;90.20;;;;;;4934296;29;20453;-73
2022/08/05 10:49:10;;;;;;;2.72;0.30;;;22.10;90.40;;;;;;4933592;29;20051;-74
2022/08/05 10:51:45;;;;;;;3.40;0.43;;;22.30;90.20;;;;;;4938328;29;20099;-73
2022/08/05 10:54:11;;;;;;;2.33;0.22;;;22.30;88.60;;;;;;4941555;29;20139;-75
2022/08/05 10:56:44;;;;;;;;;;;22.40;90.00;;;;;;4938243;29;20125;-73
2022/08/05 10:59:14;;;;;;;4.57;0.30;;;22.40;88.50;;;;;;4934996;29;19923;-71
2022/08/05 11:01:43;;;;;;;2.50;0.20;;;22.40;88.70;;;;;;4934435;29;20051;-72
2022/08/05 11:04:21;;;;;;;2.05;0.20;;;22.40;88.10;;;;;;4936369;29;20059;-72
2022/08/05 11:06:56;;;;;;;2.50;0.22;;;22.40;87.20;;;;;;4920281;29;20397;-75
2022/08/05 11:09:24;;;;;;;1.60;0.20;;;22.40;85.00;;;;;;4938860;29;20051;-75
2022/08/05 11:11:52;;;;;;;1.40;0.10;;;22.10;79.60;;;;;;4922335;29;20066;-72
2022/08/05 11:14:38;;;;;;;2.45;0.17;;;22.10;80.50;;;;;;4933563;29;20070;-79
2022/08/05 11:17:43;;;;;;;5.03;0.20;;;22.00;79.10;;;;;;4934711;29;20157;-73
2022/08/05 11:20:38;;;;;;;0.40;0.10;;;22.00;74.90;;;;;;4878783;29;20441;-76
2022/08/05 11:23:25;;;;;;;0.77;0.10;;;22.10;74.20;;;;;;4885005;29;20296;-74
2022/08/05 11:26:08;;;;;;;2.10;0.10;;;22.30;74.30;;;;;;4932855;29;20068;-75
2022/08/05 11:28:35;;;;;;;1.55;0.13;;;22.30;73.50;;;;;;4923696;29;20059;-75
2022/08/05 11:31:02;;;;;;;3.80;0.20;;;22.30;75.50;;;;;;4939299;29;20087;-74
2022/08/05 11:33:37;;;;;;;3.58;0.20;;;22.50;75.10;;;;;;4938341;29;20456;-71
2022/08/05 11:36:06;;;;;;;1.15;0.15;;;22.60;75.10;;;;;;4938436;29;20047;-75
2022/08/05 11:38:37;;;;;;;4.38;0.20;;;22.60;73.30;;;;;;4952642;29;20382;-77
2022/08/05 11:41:21;;;;;;;3.03;0.20;;;22.40;70.20;;;;;;4940523;29;20067;-72
2022/08/05 11:44:11;;;;;;;3.40;0.20;;;22.70;70.20;;;;;;4924269;29;20464;-73
2022/08/05 11:46:48;;;;;;;1.58;0.10;;;22.90;68.50;;;;;;4910071;29;20051;-78
2022/08/05 11:49:16;;;;;;;1.40;0.10;;;23.10;68.70;;;;;;4947515;28;20070;-73
2022/08/05 11:51:47;;;;;;;5.18;0.20;;;23.10;69.10;;;;;;4948826;29;20047;-73
2022/08/05 11:54:26;;;;;;;2.45;0.20;;;23.20;68.20;;;;;;4930776;29;20318;-73
2022/08/05 11:57:02;;;;;;;4.75;0.20;;;22.80;64.70;;;;;;4947601;29;20199;-75
2022/08/05 11:59:32;;;;;;;2.88;0.20;;;22.40;65.60;;;;;;4946737;29;20055;-74
2022/08/05 12:02:05;;;;;;;1.20;0.20;;;22.90;68.40;;;;;;4938482;29;20057;-73
2022/08/05 12:04:38;;;;;;;5.03;0.20;;;23.00;66.70;;;;;;4966897;29;20113;-73
2022/08/05 12:07:09;;;;;;;3.00;0.22;;;23.30;66.60;;;;;;4966164;29;20086;-76
2022/08/05 12:09:40;;;;;;;4.50;0.15;;;23.00;66.30;;;;;;4966318;29;20115;-74
2022/08/05 12:12:09;;;;;;;5.05;0.20;;;23.20;66.30;;;;;;4949300;29;20083;-73
2022/08/05 12:14:42;;;;;;;1.48;0.20;;;22.70;66.50;;;;;;4966825;29;20102;-74
2022/08/05 12:17:10;;;;;;;1.33;0.20;;;22.50;68.20;;;;;;4948832;29;20058;-73
2022/08/05 12:19:53;;;;;;;1.50;0.10;;;22.00;68.90;;;;;;4960560;29;20078;-72
2022/08/05 12:22:20;;;;;;;3.83;0.20;;;22.20;70.00;;;;;;4943724;29;20044;-75
2022/08/05 12:24:54;;;;;;;0.98;0.10;;;22.50;71.10;;;;;;4930622;29;20087;-73
2022/08/05 12:27:22;;;;;;;0.43;0.10;;;22.30;69.30;;;;;;4964394;29;20377;-72
2022/08/05 12:30:10;;;;;;;2.97;0.15;;;22.40;70.50;;;;;;4949457;29;20040;-74
2022/08/05 12:32:45;;;;;;;1.27;0.10;;;22.10;70.60;;;;;;4950872;29;20353;-75
2022/08/05 12:35:16;;;;;;;5.43;0.30;;;22.50;72.60;;;;;;4950438;29;20058;-74
2022/08/05 12:37:45;;;;;;;1.67;0.10;;;22.60;72.90;;;;;;4934237;29;20382;-76
2022/08/05 12:40:13;;;;;;;2.97;0.30;;;22.50;70.00;;;;;;4966035;29;20047;-77
2022/08/05 12:42:39;;;;;;;1.33;0.10;;;22.30;70.40;;;;;;4947730;29;20047;-72
2022/08/05 12:45:06;;;;;;;;;;;22.40;72.90;;;;;;4916172;29;20048;-72
2022/08/05 12:47:32;;;;;;;2.80;0.20;;;22.10;73.30;;;;;;4947612;29;19934;-76
2022/08/05 12:49:59;;;;;;;3.65;0.10;;;22.00;74.20;;;;;;4948514;29;20059;-76
2022/08/05 12:52:26;;;;;;;6.55;0.30;;;22.30;73.50;;;;;;4916680;29;20048;-73
2022/08/05 12:54:53;;;;;;;;;;;22.40;73.50;;;;;;4950838;29;20044;-74
2022/08/05 12:57:19;;;;;;;2.35;0.10;;;22.50;73.90;;;;;;4935067;29;19969;-73
2022/08/05 12:59:54;;;;;;;3.88;0.20;;;22.60;73.40;;;;;;4952401;29;20120;-73
2022/08/05 13:02:24;;;;;;;1.08;0.15;;;22.20;71.50;;;;;;4946882;29;20400;-74